EHJR

K13-a Sea

K13-a Sea, The Netherlands
METAR EHJR 181555Z AUTO 35013KT //// // ///////// 08/04 Q1028 RE// W08/H16
Observed Flight Rules
Dec-18 @ 15:55 UTC (30 minutes ago)
Wind
350° at 13 knots
Temperatures Readings
Current 8°C / 46°F
Dewpoint 4°C / 39°F
Humidity 76%
Altimeter 30.35" Hg
Pressure 1028 hPa
Elevation 50
METAR EHJR 181555Z AUTO 35013KT //// // ///////// 08/04 Q1028 RE// W08/H16
Observed Flight Rules
Dec-18 @ 15:55 UTC
(30 minutes ago)
Wind
350° at 13 knots
Temperature Dewpoint
8°C / 46°F 4°C / 39°F
Humidity Altimeter Pressure
76% 30.35" Hg 1028 hPa